Time;durP1;ratioP1;P1;durP2;ratioP2;P2;SDS_P1;SDS_P2;PMS_P1;PMS_P2;Temp;Humidity;BMP_temperature;BMP_pressure;BME280_temperature;BME280_humidity;BME280_pressure;Samples;Min_cycle;Max_cycle;Signal;HPM_P1;HPM_P2
2023/09/29 00:01:52;;;;;;;22.40;14.80;;;;;;;15.87;77.01;100693.89;105962;1254;68834;-79
2023/09/29 00:04:19;;;;;;;18.40;15.80;;;;;;;15.80;77.23;100689.89;106168;1256;70206;-78
2023/09/29 00:06:47;;;;;;;16.50;14.20;;;;;;;15.72;77.41;100694.69;107328;1256;60537;-79
2023/09/29 00:09:16;;;;;;;19.20;14.40;;;;;;;15.73;77.50;100692.80;108079;1253;58716;-78
2023/09/29 00:11:44;;;;;;;20.20;15.00;;;;;;;15.75;77.39;100688.11;108334;1253;71844;-79
2023/09/29 00:14:13;;;;;;;21.00;15.30;;;;;;;15.70;77.80;100691.71;106633;1259;69110;-79
2023/09/29 00:16:41;;;;;;;19.50;14.90;;;;;;;15.65;77.87;100692.23;106147;1257;72668;-78
2023/09/29 00:19:08;;;;;;;21.60;14.70;;;;;;;15.60;78.02;100692.92;105757;1253;60173;-77
2023/09/29 00:21:36;;;;;;;19.40;15.80;;;;;;;15.53;78.12;100690.41;105688;1253;59963;-81
2023/09/29 00:24:04;;;;;;;22.40;15.30;;;;;;;15.47;78.34;100688.60;105817;1258;73254;-80
2023/09/29 00:26:31;;;;;;;17.80;14.30;;;;;;;15.50;78.36;100688.78;105666;1258;67861;-79
2023/09/29 00:28:59;;;;;;;16.80;15.10;;;;;;;15.55;78.31;100685.55;105707;1253;72679;-80
2023/09/29 00:31:26;;;;;;;20.00;15.70;;;;;;;15.52;78.49;100684.50;105683;1258;59677;-80
2023/09/29 00:33:54;;;;;;;20.80;15.60;;;;;;;15.48;78.43;100684.80;105799;1253;60501;-80
2023/09/29 00:36:21;;;;;;;19.70;14.60;;;;;;;15.46;78.44;100687.55;105639;1253;71835;-80
2023/09/29 00:38:49;;;;;;;22.10;17.30;;;;;;;15.41;78.63;100681.52;105791;1258;68836;-78
2023/09/29 00:41:17;;;;;;;22.70;15.00;;;;;;;15.37;78.57;100684.04;105687;1256;72677;-79
2023/09/29 00:43:44;;;;;;;17.10;14.90;;;;;;;15.41;78.44;100681.31;105774;1256;61634;-79
2023/09/29 00:46:12;;;;;;;18.90;15.40;;;;;;;15.43;78.25;100681.81;105990;1253;59561;-77
2023/09/29 00:48:39;;;;;;;19.90;15.10;;;;;;;15.38;78.38;100683.79;106762;1253;71819;-78
2023/09/29 00:51:07;;;;;;;19.60;15.40;;;;;;;15.32;78.61;100686.96;106422;1258;68714;-81
2023/09/29 00:53:35;;;;;;;19.70;15.90;;;;;;;15.26;78.75;100687.98;105816;1259;71688;-79
2023/09/29 00:56:03;;;;;;;17.00;14.90;;;;;;;15.19;78.94;100685.79;105748;1261;59685;-80
2023/09/29 00:58:30;;;;;;;20.50;14.80;;;;;;;15.14;79.19;100688.09;105615;1253;59709;-80
2023/09/29 01:00:58;;;;;;;20.00;14.50;;;;;;;15.23;79.01;100685.21;106008;1256;73021;-80
2023/09/29 01:03:27;;;;;;;20.00;15.10;;;;;;;15.30;78.89;100686.86;105801;1254;70085;-79
2023/09/29 01:05:55;;;;;;;18.50;14.80;;;;;;;15.30;78.79;100684.66;105882;1256;71180;-80
2023/09/29 01:08:23;;;;;;;21.70;16.20;;;;;;;15.26;78.77;100682.67;106238;1258;59747;-80
2023/09/29 01:10:52;;;;;;;19.80;14.70;;;;;;;15.22;79.06;100684.41;106207;1258;59631;-79
2023/09/29 01:13:22;;;;;;;20.60;15.70;;;;;;;15.19;79.13;100681.67;106766;1253;71645;-77
2023/09/29 01:15:53;;;;;;;21.10;14.80;;;;;;;15.18;79.27;100681.04;108412;1253;69185;-79
2023/09/29 01:18:22;;;;;;;17.10;14.40;;;;;;;15.23;79.03;100681.52;108194;1256;74005;-78
2023/09/29 01:20:52;;;;;;;19.80;15.40;;;;;;;15.27;78.76;100687.52;106431;1255;59573;-77
2023/09/29 01:23:20;;;;;;;20.30;15.30;;;;;;;15.23;78.82;100687.44;105975;1254;62140;-79
2023/09/29 01:25:47;;;;;;;18.90;15.80;;;;;;;15.15;79.22;100688.52;105833;1254;72993;-79
2023/09/29 01:28:15;;;;;;;21.00;15.30;;;;;;;15.09;79.28;100688.52;106516;1260;69011;-79
2023/09/29 01:30:43;;;;;;;18.70;14.70;;;;;;;15.04;79.52;100690.48;105983;1258;72781;-79
2023/09/29 01:33:10;;;;;;;20.90;14.80;;;;;;;15.00;79.82;100685.04;105918;1256;61715;-77
2023/09/29 01:35:39;;;;;;;19.00;16.00;;;;;;;15.04;79.60;100683.05;105676;1258;59664;-77
2023/09/29 01:38:07;;;;;;;19.90;14.80;;;;;;;15.08;79.72;100683.23;106086;1255;71886;-76
2023/09/29 01:40:34;;;;;;;17.30;15.30;;;;;;;15.06;79.93;100680.77;105776;1253;68778;-76
2023/09/29 01:43:02;;;;;;;23.30;15.50;;;;;;;15.02;79.98;100681.83;105867;1257;72744;-77
2023/09/29 01:45:32;;;;;;;20.40;16.60;;;;;;;14.98;80.29;100680.48;105744;1256;60110;-77
2023/09/29 01:48:03;;;;;;;22.70;17.10;;;;;;;14.94;80.28;100681.59;105847;1259;60020;-77
2023/09/29 01:50:33;;;;;;;18.80;15.00;;;;;;;14.90;80.26;100681.94;105675;1254;75504;-78
2023/09/29 01:53:01;;;;;;;16.00;14.30;;;;;;;14.94;80.34;100681.83;105731;1259;69259;-78
2023/09/29 01:55:30;;;;;;;22.60;16.30;;;;;;;15.00;80.21;100684.58;105746;1256;70729;-79
2023/09/29 01:57:57;;;;;;;20.70;16.00;;;;;;;14.98;80.18;100682.27;105750;1252;60062;-78
2023/09/29 02:00:28;;;;;;;21.00;16.50;;;;;;;14.89;80.34;100681.67;105699;1261;60042;-78
2023/09/29 02:02:58;;;;;;;20.80;16.40;;;;;;;14.82;80.71;100682.61;105553;1259;73275;-79
2023/09/29 02:05:26;;;;;;;19.20;14.60;;;;;;;14.78;80.89;100681.68;105634;1253;69962;-76
2023/09/29 02:07:54;;;;;;;18.40;15.50;;;;;;;14.83;80.92;100682.66;105782;1259;71425;-74
2023/09/29 02:10:22;;;;;;;20.30;14.90;;;;;;;14.89;80.83;100682.17;105577;1258;59918;-77
2023/09/29 02:12:54;;;;;;;19.10;15.90;;;;;;;14.87;80.80;100680.52;105651;1258;59618;-78
2023/09/29 02:15:22;;;;;;;22.80;15.90;;;;;;;14.79;80.77;100678.36;105770;1260;73124;-78
2023/09/29 02:17:50;;;;;;;18.20;15.90;;;;;;;14.71;81.23;100675.65;105789;1253;70751;-77
2023/09/29 02:20:20;;;;;;;22.70;15.80;;;;;;;14.63;81.35;100675.81;106115;1253;71701;-78
2023/09/29 02:22:48;;;;;;;20.00;15.10;;;;;;;14.59;81.76;100675.62;108910;1256;60451;-77
2023/09/29 02:25:18;;;;;;;19.70;14.20;;;;;;;14.64;81.57;100673.02;108704;1253;59141;-77
2023/09/29 02:27:48;;;;;;;18.20;14.50;;;;;;;14.74;81.45;100677.08;106357;1260;70478;-77
2023/09/29 02:30:16;;;;;;;20.80;15.10;;;;;;;14.75;81.38;100675.21;105752;1254;69983;-77
2023/09/29 02:32:44;;;;;;;22.90;16.20;;;;;;;14.71;81.43;100673.08;105851;1255;71397;-78
2023/09/29 02:35:12;;;;;;;18.50;16.10;;;;;;;14.68;81.39;100677.77;105657;1260;60252;-78
2023/09/29 02:37:41;;;;;;;21.60;15.20;;;;;;;14.66;81.42;100677.60;105604;1259;60025;-76
2023/09/29 02:40:12;;;;;;;21.90;14.90;;;;;;;14.72;81.16;100679.34;105698;1256;73317;-79
2023/09/29 02:42:39;;;;;;;23.30;16.40;;;;;;;14.75;80.98;100677.84;105802;1261;68144;-79
2023/09/29 02:45:07;;;;;;;20.60;15.20;;;;;;;14.72;81.05;100676.29;105952;1257;70287;-78
2023/09/29 02:47:35;;;;;;;25.40;16.50;;;;;;;14.69;81.14;100679.11;106359;1259;60083;-77
2023/09/29 02:50:04;;;;;;;20.00;16.20;;;;;;;14.65;81.10;100680.92;105988;1259;59538;-79
2023/09/29 02:52:32;;;;;;;20.60;14.50;;;;;;;14.61;81.00;100681.02;105760;1259;73031;-78
2023/09/29 02:54:59;;;;;;;18.20;14.70;;;;;;;14.63;81.12;100685.35;105620;1261;68651;-76
2023/09/29 02:57:26;;;;;;;18.90;14.80;;;;;;;14.64;81.01;100684.27;105633;1258;72688;-78
2023/09/29 02:59:54;;;;;;;26.70;15.90;;;;;;;14.63;81.22;100684.02;105660;1258;59557;-77
2023/09/29 03:02:22;;;;;;;20.60;15.50;;;;;;;14.58;81.22;100683.52;105704;1253;60019;-78
2023/09/29 03:04:50;;;;;;;23.50;17.60;;;;;;;14.52;81.36;100683.84;105661;1259;73137;-78
2023/09/29 03:07:18;;;;;;;21.20;15.10;;;;;;;14.45;81.51;100680.54;105392;1253;68690;-77
2023/09/29 03:09:45;;;;;;;17.50;14.40;;;;;;;14.46;81.45;100682.71;105806;1256;72474;-76
2023/09/29 03:12:13;;;;;;;24.00;15.30;;;;;;;14.49;81.53;100678.23;105661;1260;59738;-76
2023/09/29 03:14:40;;;;;;;22.20;16.70;;;;;;;14.45;81.61;100678.84;105750;1260;59986;-76
2023/09/29 03:17:08;;;;;;;27.90;16.60;;;;;;;14.40;81.80;100681.30;105854;1260;73014;-75
2023/09/29 03:19:36;;;;;;;25.40;17.80;;;;;;;14.35;81.95;100678.70;105826;1260;68817;-76
2023/09/29 03:22:04;;;;;;;20.40;15.60;;;;;;;14.37;82.02;100676.41;105981;1259;72667;-77
2023/09/29 03:24:34;;;;;;;22.20;17.20;;;;;;;14.42;81.73;100680.27;105765;1253;61637;-77
2023/09/29 03:27:01;;;;;;;22.10;15.10;;;;;;;14.48;81.56;100682.44;105844;1261;59557;-75
2023/09/29 03:29:29;;;;;;;20.50;15.20;;;;;;;14.47;81.54;100680.06;105704;1257;73041;-76
2023/09/29 03:31:57;;;;;;;20.20;15.50;;;;;;;14.41;81.43;100680.05;105994;1254;70343;-75
2023/09/29 03:34:24;;;;;;;21.60;16.70;;;;;;;14.35;81.63;100678.86;105701;1257;70956;-78
2023/09/29 03:36:52;;;;;;;18.80;16.20;;;;;;;14.35;81.64;100681.80;105902;1257;61661;-76
2023/09/29 03:39:20;;;;;;;23.50;14.90;;;;;;;14.43;81.43;100682.16;105993;1257;59635;-77
2023/09/29 03:41:47;;;;;;;17.80;14.40;;;;;;;14.52;81.13;100680.39;106078;1260;72312;-76
2023/09/29 03:44:14;;;;;;;22.40;16.30;;;;;;;14.53;81.11;100682.06;106242;1258;70344;-78
2023/09/29 03:46:42;;;;;;;21.50;16.70;;;;;;;14.46;80.82;100681.27;105708;1260;70673;-76
2023/09/29 03:49:10;;;;;;;24.30;18.00;;;;;;;14.37;80.84;100679.55;105830;1260;59285;-77
2023/09/29 03:51:38;;;;;;;24.30;17.90;;;;;;;14.30;81.08;100682.88;105670;1259;60482;-79
2023/09/29 03:54:09;;;;;;;19.20;15.90;;;;;;;14.29;81.24;100682.05;105788;1260;73892;-78
2023/09/29 03:56:36;;;;;;;22.30;17.00;;;;;;;14.31;81.13;100677.56;105733;1261;70070;-77
2023/09/29 03:59:04;;;;;;;22.30;17.30;;;;;;;14.27;81.40;100679.78;105689;1259;71215;-77
2023/09/29 04:01:32;;;;;;;22.70;17.30;;;;;;;14.18;81.47;100680.05;105503;1258;60503;-77
2023/09/29 04:04:01;;;;;;;23.40;18.20;;;;;;;14.07;81.87;100681.13;105756;1254;60530;-76
2023/09/29 04:06:29;;;;;;;22.00;17.60;;;;;;;14.01;82.33;100678.77;105928;1259;74473;-78
2023/09/29 04:08:57;;;;;;;25.10;18.90;;;;;;;14.07;82.32;100682.49;105868;1260;69199;-77
2023/09/29 04:11:26;;;;;;;22.80;18.20;;;;;;;14.13;82.33;100680.92;105704;1256;72122;-77
2023/09/29 04:13:54;;;;;;;25.40;18.90;;;;;;;14.12;82.53;100681.29;105835;1258;60582;-77
2023/09/29 04:16:21;;;;;;;21.80;18.00;;;;;;;14.07;82.65;100685.20;105698;1259;60905;-76
2023/09/29 04:18:49;;;;;;;24.70;19.20;;;;;;;14.04;82.87;100684.47;105706;1254;73847;-79
2023/09/29 04:21:16;;;;;;;25.10;19.50;;;;;;;14.05;82.87;100684.33;105658;1259;68558;-77
2023/09/29 04:23:47;;;;;;;19.50;17.40;;;;;;;14.14;82.87;100684.46;105606;1260;72826;-78
2023/09/29 04:26:22;;;;;;;27.00;18.30;;;;;;;14.22;82.73;100681.55;105796;1259;60545;-78
2023/09/29 04:28:52;;;;;;;27.40;20.40;;;;;;;14.28;82.68;100682.58;105764;1259;60447;-77
2023/09/29 04:31:20;;;;;;;23.30;18.90;;;;;;;14.28;82.74;100683.77;105762;1254;73887;-76
2023/09/29 04:33:47;;;;;;;22.90;18.40;;;;;;;14.31;82.53;100685.08;106951;1254;69990;-76
2023/09/29 04:36:15;;;;;;;25.00;17.80;;;;;;;14.32;82.65;100685.81;107944;1259;71148;-75
2023/09/29 04:38:42;;;;;;;28.20;18.10;;;;;;;14.41;82.31;100687.38;107673;1258;61882;-74
2023/09/29 04:41:10;;;;;;;26.90;18.90;;;;;;;14.51;82.21;100684.45;106065;1254;60547;-76
2023/09/29 04:43:37;;;;;;;28.70;19.80;;;;;;;14.55;82.10;100686.71;105714;1255;73871;-76
2023/09/29 04:46:04;;;;;;;28.40;19.50;;;;;;;14.51;82.01;100688.48;105736;1260;71613;-76
2023/09/29 04:48:32;;;;;;;26.40;19.80;;;;;;;14.44;82.26;100690.36;105737;1257;71489;-75
2023/09/29 04:50:59;;;;;;;26.30;19.40;;;;;;;14.42;82.39;100689.02;105851;1259;62643;-76
2023/09/29 04:53:27;;;;;;;24.20;19.50;;;;;;;14.53;82.65;100690.13;105728;1258;60499;-75
2023/09/29 04:55:58;;;;;;;29.40;20.10;;;;;;;14.70;82.54;100688.66;105725;1255;74322;-77
2023/09/29 04:58:25;;;;;;;23.40;19.20;;;;;;;14.74;82.03;100689.42;105673;1263;68858;-78
2023/09/29 05:00:52;;;;;;;27.70;19.30;;;;;;;14.73;81.96;100686.68;105772;1255;70419;-77
2023/09/29 05:03:20;;;;;;;23.40;18.30;;;;;;;14.73;82.36;100686.89;105791;1254;60453;-76
2023/09/29 05:05:47;;;;;;;25.90;19.40;;;;;;;14.74;82.32;100685.80;105640;1257;60331;-75
2023/09/29 05:08:15;;;;;;;22.60;18.30;;;;;;;14.84;82.34;100687.42;105685;1258;72843;-74
2023/09/29 05:10:43;;;;;;;31.00;19.40;;;;;;;14.97;82.40;100690.78;105623;1259;70017;-77
2023/09/29 05:13:11;;;;;;;22.10;18.50;;;;;;;15.02;82.17;100692.33;105832;1258;72732;-76
2023/09/29 05:15:38;;;;;;;22.40;20.00;;;;;;;15.07;82.20;100691.37;105717;1260;62145;-76
2023/09/29 05:18:06;;;;;;;24.10;19.80;;;;;;;15.13;82.26;100691.02;105565;1256;60351;-76
2023/09/29 05:20:33;;;;;;;25.10;18.40;;;;;;;15.21;82.11;100691.40;105692;1261;74141;-77
2023/09/29 05:23:01;;;;;;;24.40;17.80;;;;;;;15.35;81.94;100690.56;105690;1266;69994;-75
2023/09/29 05:25:28;;;;;;;27.00;20.30;;;;;;;15.53;81.42;100696.88;105720;1259;71477;-77
2023/09/29 05:27:55;;;;;;;24.50;19.50;;;;;;;15.59;80.95;100697.30;105739;1260;62337;-77
2023/09/29 05:30:23;;;;;;;25.00;21.10;;;;;;;15.60;80.84;100698.38;105852;1253;61210;-77
2023/09/29 05:32:50;;;;;;;26.80;21.60;;;;;;;15.65;81.07;100698.66;105800;1254;72881;-79
2023/09/29 05:35:18;;;;;;;23.70;20.00;;;;;;;15.74;81.39;100693.56;106025;1254;70374;-77
2023/09/29 05:37:45;;;;;;;24.30;18.70;;;;;;;15.94;80.76;100695.17;106106;1259;70626;-78
2023/09/29 05:40:13;;;;;;;21.90;19.40;;;;;;;16.13;80.35;100695.27;107253;1253;60957;-79
2023/09/29 05:42:43;;;;;;;26.30;19.20;;;;;;;16.28;79.99;100692.02;109191;1253;59215;-80
2023/09/29 05:45:23;;;;;;;25.90;20.50;;;;;;;16.45;79.55;100687.77;108716;1254;72579;-81
2023/09/29 05:47:51;;;;;;;26.20;21.20;;;;;;;16.56;79.03;100691.73;107241;1252;68748;-78
2023/09/29 05:50:20;;;;;;;24.70;19.70;;;;;;;16.65;78.90;100689.42;106389;1260;72731;-79
2023/09/29 05:52:47;;;;;;;26.20;18.90;;;;;;;16.79;78.59;100687.79;106328;1258;61383;-79
2023/09/29 05:55:18;;;;;;;25.20;19.00;;;;;;;17.00;77.74;100689.09;106286;1254;59394;-79
2023/09/29 05:57:45;;;;;;;21.10;18.30;;;;;;;17.13;77.25;100686.58;106200;1254;73860;-80
2023/09/29 06:00:13;;;;;;;26.60;20.00;;;;;;;17.22;76.94;100683.84;106170;1253;70321;-79
2023/09/29 06:02:41;;;;;;;21.30;19.00;;;;;;;17.31;76.55;100681.50;106148;1260;72783;-81
2023/09/29 06:05:10;;;;;;;23.90;18.70;;;;;;;17.38;76.17;100681.52;107049;1254;60940;-80
2023/09/29 06:07:37;;;;;;;23.50;20.70;;;;;;;17.42;75.98;100680.50;106030;1258;60486;-80
2023/09/29 06:10:06;;;;;;;26.30;21.30;;;;;;;17.49;75.62;100683.88;105808;1260;73807;-80
2023/09/29 06:12:33;;;;;;;28.10;20.50;;;;;;;17.56;75.25;100684.36;106193;1257;70835;-81
2023/09/29 06:15:01;;;;;;;25.60;19.90;;;;;;;17.64;74.98;100685.94;106016;1254;71381;-82
2023/09/29 06:17:29;;;;;;;22.00;18.00;;;;;;;17.80;74.47;100685.94;106010;1257;61748;-80
2023/09/29 06:19:57;;;;;;;23.40;20.00;;;;;;;17.95;74.15;100687.33;106037;1254;60482;-81
2023/09/29 06:22:25;;;;;;;33.30;20.90;;;;;;;17.98;74.05;100686.61;105825;1253;73828;-82
2023/09/29 06:24:52;;;;;;;22.70;19.70;;;;;;;18.02;74.23;100685.95;105852;1258;68683;-81
2023/09/29 06:27:20;;;;;;;25.20;20.60;;;;;;;18.14;74.08;100687.25;106353;1253;73850;-82
2023/09/29 06:29:50;;;;;;;25.70;21.00;;;;;;;18.28;73.55;100686.02;105958;1254;60514;-82
2023/09/29 06:32:17;;;;;;;28.10;21.00;;;;;;;18.41;72.86;100686.20;105933;1258;60422;-80
2023/09/29 06:34:45;;;;;;;26.00;20.10;;;;;;;18.50;72.25;100683.48;105835;1260;72590;-82
2023/09/29 06:37:12;;;;;;;32.90;21.40;;;;;;;18.57;72.00;100683.95;106003;1259;69073;-81
2023/09/29 06:39:40;;;;;;;32.50;19.70;;;;;;;18.67;71.62;100687.82;106249;1254;71153;-82
2023/09/29 06:42:07;;;;;;;30.50;20.80;;;;;;;18.78;71.54;100687.27;107043;1253;60451;-82
2023/09/29 06:44:36;;;;;;;29.10;20.50;;;;;;;18.89;71.23;100690.11;106783;1254;60568;-82
2023/09/29 06:47:04;;;;;;;31.20;19.90;;;;;;;19.00;71.19;100693.85;107609;1253;72233;-82
2023/09/29 06:49:31;;;;;;;35.50;20.40;;;;;;;19.19;70.81;100694.22;109172;1252;69344;-81
2023/09/29 06:51:59;;;;;;;25.90;20.00;;;;;;;19.36;70.31;100691.29;108578;1257;71344;-81
2023/09/29 06:54:26;;;;;;;32.50;20.90;;;;;;;19.50;69.63;100690.05;106346;1254;60430;-81
2023/09/29 06:56:53;;;;;;;24.80;20.40;;;;;;;19.61;69.04;100693.80;106318;1254;60547;-81
2023/09/29 06:59:21;;;;;;;30.30;21.70;;;;;;;19.71;68.62;100694.00;106284;1254;73947;-81
2023/09/29 07:01:49;;;;;;;31.40;20.20;;;;;;;19.79;68.51;100694.77;106215;1259;68881;-84
2023/09/29 07:04:17;;;;;;;33.80;22.70;;;;;;;19.84;67.92;100694.13;106262;1254;72767;-84
2023/09/29 07:06:45;;;;;;;25.80;20.40;;;;;;;19.93;67.70;100692.55;105971;1253;60442;-84
2023/09/29 07:09:13;;;;;;;26.30;20.50;;;;;;;20.07;67.21;100689.64;105992;1254;60504;-84
2023/09/29 07:11:42;;;;;;;29.10;21.40;;;;;;;20.20;66.94;100692.09;106382;1253;74695;-85
2023/09/29 07:14:09;;;;;;;29.60;19.90;;;;;;;20.33;66.57;100689.34;106047;1253;69233;-85
2023/09/29 07:16:38;;;;;;;29.20;20.70;;;;;;;20.47;65.90;100688.83;106366;1257;71486;-85
2023/09/29 07:19:06;;;;;;;41.10;22.70;;;;;;;20.61;65.46;100681.23;107113;1252;60341;-85
2023/09/29 07:21:33;;;;;;;26.00;19.80;;;;;;;20.73;65.50;100681.65;107515;1252;60586;-85
2023/09/29 07:24:01;;;;;;;26.90;20.20;;;;;;;20.85;65.07;100683.73;106434;1259;74024;-85
2023/09/29 07:26:29;;;;;;;31.20;19.90;;;;;;;20.93;64.77;100682.55;106320;1254;70020;-85
2023/09/29 07:29:01;;;;;;;29.70;21.30;;;;;;;20.99;64.64;100685.89;107145;1258;71365;-85
2023/09/29 07:31:38;;;;;;;28.30;20.40;;;;;;;21.05;63.81;100682.84;107037;1257;60543;-82
2023/09/29 07:34:06;;;;;;;24.30;18.30;;;;;;;21.16;63.46;100684.61;105867;1255;60919;-84
2023/09/29 07:36:35;;;;;;;31.50;20.20;;;;;;;21.27;62.64;100679.33;106069;1252;71610;-86
2023/09/29 07:39:03;;;;;;;25.20;19.30;;;;;;;21.41;62.89;100683.84;106062;1254;70093;-82
2023/09/29 07:41:32;;;;;;;29.30;20.80;;;;;;;21.53;62.44;100682.29;106458;1254;72674;-88
2023/09/29 07:43:59;;;;;;;34.00;19.40;;;;;;;21.67;62.90;100685.02;106587;1254;60387;-85
2023/09/29 07:46:27;;;;;;;25.70;19.30;;;;;;;21.78;63.30;100688.77;106517;1254;60982;-86
2023/09/29 07:48:54;;;;;;;29.20;19.80;;;;;;;21.86;62.84;100688.63;109000;1252;74538;-86
2023/09/29 07:51:24;;;;;;;30.10;18.70;;;;;;;21.96;62.33;100690.59;109413;1254;68000;-84
2023/09/29 07:53:52;;;;;;;37.90;19.40;;;;;;;22.11;61.72;100693.39;109384;1253;71265;-85
2023/09/29 07:56:19;;;;;;;29.70;18.30;;;;;;;22.28;61.11;100687.67;109337;1254;59344;-85
2023/09/29 07:58:47;;;;;;;24.60;18.60;;;;;;;22.45;60.97;100687.64;109138;1253;61113;-85
2023/09/29 08:01:14;;;;;;;26.60;18.20;;;;;;;22.62;61.03;100685.64;108439;1252;73141;-84
2023/09/29 08:03:42;;;;;;;30.50;17.70;;;;;;;22.83;59.74;100679.78;106413;1254;72624;-83
2023/09/29 08:06:10;;;;;;;31.70;18.70;;;;;;;23.04;58.57;100677.96;106222;1254;70906;-83
2023/09/29 08:08:37;;;;;;;26.20;15.30;;;;;;;23.23;57.51;100672.69;106652;1254;60472;-83
2023/09/29 08:11:05;;;;;;;31.40;16.90;;;;;;;23.43;55.52;100674.04;106162;1252;60528;-83
2023/09/29 08:13:32;;;;;;;28.10;17.10;;;;;;;23.58;56.02;100678.70;106168;1254;73840;-83
2023/09/29 08:16:00;;;;;;;35.60;18.10;;;;;;;23.73;55.93;100674.71;106071;1254;70397;-80
2023/09/29 08:18:28;;;;;;;24.10;15.70;;;;;;;23.90;55.62;100671.73;105763;1258;71432;-83
2023/09/29 08:20:56;;;;;;;21.80;15.80;;;;;;;24.05;54.45;100672.81;105782;1253;60547;-83
2023/09/29 08:23:24;;;;;;;29.90;16.30;;;;;;;24.22;53.85;100673.32;106150;1254;60593;-83
2023/09/29 08:25:51;;;;;;;24.70;14.90;;;;;;;24.39;53.79;100673.22;106145;1253;72757;-84
2023/09/29 08:28:19;;;;;;;22.60;14.20;;;;;;;24.58;53.12;100672.70;106534;1257;68790;-84
2023/09/29 08:30:46;;;;;;;25.80;14.10;;;;;;;24.75;51.88;100667.94;106107;1253;71933;-81
2023/09/29 08:33:14;;;;;;;22.80;14.00;;;;;;;24.89;51.19;100662.80;106502;1253;60564;-83
2023/09/29 08:35:59;;;;;;;29.10;14.10;;;;;;;25.08;50.51;100667.38;106816;1254;62184;-84
2023/09/29 08:38:26;;;;;;;11.40;9.80;;;;;;;25.26;50.20;100669.70;107450;1254;72586;-84
2023/09/29 08:40:54;;;;;;;12.50;10.00;;;;;;;25.46;46.96;100665.48;106930;1253;69281;-84
2023/09/29 08:43:24;;;;;;;12.80;10.70;;;;;;;25.65;45.66;100662.58;107417;1259;71421;-84
2023/09/29 08:45:51;;;;;;;13.70;9.90;;;;;;;25.86;45.78;100662.27;107326;1256;60514;-83
2023/09/29 08:48:19;;;;;;;12.60;8.60;;;;;;;26.10;43.65;100667.52;106375;1254;60338;-83
2023/09/29 08:50:55;;;;;;;16.40;10.00;;;;;;;26.25;42.63;100663.06;107014;1254;72820;-84
2023/09/29 08:53:24;;;;;;;12.80;8.00;;;;;;;26.44;42.62;100667.10;106912;1252;68997;-87
2023/09/29 08:55:53;;;;;;;13.30;8.00;;;;;;;26.71;40.68;100663.33;108777;1252;70663;-88
2023/09/29 08:58:21;;;;;;;11.10;8.70;;;;;;;27.08;40.33;100664.59;106927;1256;62039;-85
2023/09/29 09:00:50;;;;;;;12.10;8.10;;;;;;;27.61;39.71;100667.71;106087;1265;60547;-82
2023/09/29 09:03:19;;;;;;;13.20;7.90;;;;;;;28.20;39.10;100668.91;106585;1260;76004;-83
2023/09/29 09:05:47;;;;;;;9.50;7.40;;;;;;;28.79;37.93;100664.67;108448;1258;70459;-81
2023/09/29 09:08:15;;;;;;;9.60;7.00;;;;;;;29.35;37.08;100662.73;108744;1256;73494;-81
2023/09/29 09:10:43;;;;;;;8.10;6.60;;;;;;;29.95;36.18;100664.05;107493;1257;60556;-81
2023/09/29 09:13:20;;;;;;;7.90;6.60;;;;;;;30.51;35.00;100663.14;106109;1260;60620;-82
2023/09/29 09:15:58;;;;;;;7.00;6.20;;;;;;;31.12;34.40;100660.42;105933;1258;74092;-80
2023/09/29 09:18:28;;;;;;;7.80;7.00;;;;;;;31.66;33.00;100657.73;106531;1259;72363;-81
2023/09/29 09:20:57;;;;;;;8.00;7.10;;;;;;;31.99;32.44;100658.66;105802;1259;71678;-84
2023/09/29 09:23:25;;;;;;;9.30;7.20;;;;;;;32.35;32.01;100660.41;105880;1261;60362;-83
2023/09/29 09:25:53;;;;;;;9.10;6.40;;;;;;;32.78;31.22;100658.98;105711;1263;60916;-85
2023/09/29 09:28:22;;;;;;;12.10;7.70;;;;;;;33.09;31.43;100652.08;105771;1257;72279;-83
2023/09/29 09:30:59;;;;;;;9.20;7.50;;;;;;;33.44;31.29;100655.05;105644;1257;70038;-84
2023/09/29 09:33:28;;;;;;;8.20;7.40;;;;;;;33.89;30.73;100652.34;105714;1257;73054;-84
2023/09/29 09:36:06;;;;;;;11.80;7.10;;;;;;;34.23;29.75;100651.69;106909;1260;60542;-83
2023/09/29 09:38:34;;;;;;;8.50;6.40;;;;;;;34.57;29.58;100650.58;105895;1261;60470;-84
2023/09/29 09:41:01;;;;;;;7.50;6.70;;;;;;;34.87;28.78;100649.09;106249;1259;64927;-81
2023/09/29 09:43:29;;;;;;;7.70;6.80;;;;;;;35.16;28.32;100647.52;106710;1261;60998;-84
2023/09/29 09:46:06;;;;;;;8.40;6.80;;;;;;;35.55;27.98;100647.58;105985;1257;63719;-84
2023/09/29 09:48:45;;;;;;;9.20;7.90;;;;;;;35.90;27.71;100649.32;105664;1261;60614;-84
2023/09/29 09:51:17;;;;;;;8.40;7.30;;;;;;;36.21;27.47;100645.09;105868;1261;60363;-84
2023/09/29 09:53:44;;;;;;;7.80;7.00;;;;;;;36.50;27.36;100642.34;105878;1261;64854;-84
2023/09/29 09:56:19;;;;;;;9.50;7.50;;;;;;;36.99;27.05;100636.67;106124;1260;60460;-82
2023/09/29 09:58:48;;;;;;;8.40;7.50;;;;;;;37.42;26.28;100633.95;106619;1261;63790;-81
2023/09/29 10:01:18;;;;;;;6.80;6.20;;;;;;;37.73;25.65;100631.25;106010;1257;60444;-84
2023/09/29 10:03:45;;;;;;;9.80;6.40;;;;;;;37.93;25.38;100630.67;106178;1254;60469;-83
2023/09/29 10:06:13;;;;;;;6.60;6.00;;;;;;;38.10;25.33;100631.95;106751;1256;63724;-83
2023/09/29 10:08:42;;;;;;;8.90;6.40;;;;;;;38.24;24.93;100629.73;106733;1254;60452;-85
2023/09/29 10:11:14;;;;;;;8.50;6.20;;;;;;;38.46;24.85;100624.38;106640;1257;63778;-83
2023/09/29 10:13:44;;;;;;;7.40;6.30;;;;;;;38.64;24.71;100624.39;107032;1257;60454;-85
2023/09/29 10:16:24;;;;;;;7.40;6.70;;;;;;;38.86;24.54;100625.66;108055;1260;59243;-85
2023/09/29 10:18:56;;;;;;;11.70;7.30;;;;;;;39.04;24.31;100622.44;108034;1257;63998;-86
2023/09/29 10:21:25;;;;;;;7.60;6.50;;;;;;;39.29;24.13;100618.47;107732;1258;61567;-85
2023/09/29 10:23:52;;;;;;;11.10;6.70;;;;;;;39.77;23.87;100612.93;107042;1256;62534;-84
2023/09/29 10:26:20;;;;;;;10.40;6.70;;;;;;;40.24;23.42;100607.52;106848;1257;60625;-86
2023/09/29 10:28:49;;;;;;;7.50;6.50;;;;;;;40.41;22.54;100602.98;106217;1260;60493;-86
2023/09/29 10:31:17;;;;;;;7.00;5.80;;;;;;;39.98;22.63;100601.80;106348;1258;63765;-86
2023/09/29 10:33:51;;;;;;;8.70;6.10;;;;;;;39.78;23.01;100599.38;106878;1259;68842;-89
2023/09/29 10:36:20;;;;;;;7.90;6.60;;;;;;;40.15;22.88;100599.05;106384;1256;63776;-84
2023/09/29 10:38:47;;;;;;;7.10;6.40;;;;;;;40.58;22.47;100596.90;106727;1258;60489;-86
2023/09/29 10:41:15;;;;;;;7.30;6.60;;;;;;;40.90;22.25;100593.34;106391;1257;60527;-86
2023/09/29 10:44:01;;;;;;;9.00;6.80;;;;;;;41.21;21.82;100591.15;105893;1264;66980;-86
2023/09/29 10:46:29;;;;;;;7.70;5.70;;;;;;;41.24;21.66;100591.72;106121;1260;60534;-85
2023/09/29 10:48:56;;;;;;;8.50;5.50;;;;;;;41.39;21.44;100586.86;105757;1262;62540;-86
2023/09/29 10:51:30;;;;;;;6.20;5.60;;;;;;;41.62;21.34;100583.67;105953;1260;60450;-86
2023/09/29 10:54:02;;;;;;;7.10;6.20;;;;;;;41.87;21.30;100581.76;107904;1257;60523;-86
2023/09/29 10:56:30;;;;;;;8.70;7.10;;;;;;;42.04;21.09;100576.36;105947;1257;64427;-86
2023/09/29 10:58:58;;;;;;;8.50;6.30;;;;;;;42.06;21.17;100572.27;105859;1257;62217;-85
2023/09/29 11:01:31;;;;;;;10.10;7.00;;;;;;;42.05;21.04;100570.00;106480;1260;74060;-86
2023/09/29 11:04:03;;;;;;;7.10;6.50;;;;;;;41.94;21.05;100567.88;105994;1257;60562;-85
2023/09/29 11:06:39;;;;;;;6.90;6.20;;;;;;;41.83;20.87;100572.74;106172;1257;60520;-85
2023/09/29 11:09:07;;;;;;;9.70;7.20;;;;;;;41.48;21.01;100569.02;105985;1257;67170;-86
2023/09/29 11:11:36;;;;;;;9.70;6.60;;;;;;;41.32;21.31;100563.81;107016;1257;60792;-86